sensor_id;sensor_type;location;lat;lon;timestamp;P1;durP1;ratioP1;P2;durP2;ratioP2
70049;SDS011;57391;51.306;22.680;2024-03-02T00:00:44;40.10;;;18.50;;
70049;SDS011;57391;51.306;22.680;2024-03-02T00:03:11;43.00;;;17.80;;
70049;SDS011;57391;51.306;22.680;2024-03-02T00:05:20;41.50;;;18.10;;
70049;SDS011;57391;51.306;22.680;2024-03-02T00:07:24;37.80;;;16.10;;
70049;SDS011;57391;51.306;22.680;2024-03-02T00:09:26;35.30;;;17.90;;
70049;SDS011;57391;51.306;22.680;2024-03-02T00:11:29;41.30;;;17.20;;
70049;SDS011;57391;51.306;22.680;2024-03-02T00:13:31;36.00;;;16.10;;
70049;SDS011;57391;51.306;22.680;2024-03-02T00:15:41;41.70;;;17.30;;
70049;SDS011;57391;51.306;22.680;2024-03-02T00:17:52;43.90;;;18.70;;
70049;SDS011;57391;51.306;22.680;2024-03-02T00:19:55;39.50;;;17.20;;
70049;SDS011;57391;51.306;22.680;2024-03-02T00:22:01;42.80;;;18.50;;
70049;SDS011;57391;51.306;22.680;2024-03-02T00:24:17;38.50;;;15.60;;
70049;SDS011;57391;51.306;22.680;2024-03-02T00:26:23;43.00;;;18.60;;
70049;SDS011;57391;51.306;22.680;2024-03-02T00:28:30;38.90;;;17.10;;
70049;SDS011;57391;51.306;22.680;2024-03-02T00:31:05;39.10;;;17.00;;
70049;SDS011;57391;51.306;22.680;2024-03-02T00:33:10;41.10;;;16.00;;
70049;SDS011;57391;51.306;22.680;2024-03-02T00:35:13;40.90;;;17.50;;
70049;SDS011;57391;51.306;22.680;2024-03-02T00:37:15;42.10;;;17.10;;
70049;SDS011;57391;51.306;22.680;2024-03-02T00:39:17;40.80;;;18.90;;
70049;SDS011;57391;51.306;22.680;2024-03-02T00:43:42;40.90;;;18.80;;
70049;SDS011;57391;51.306;22.680;2024-03-02T00:45:49;42.10;;;19.10;;
70049;SDS011;57391;51.306;22.680;2024-03-02T00:47:51;39.90;;;17.20;;
70049;SDS011;57391;51.306;22.680;2024-03-02T00:49:54;45.60;;;20.00;;
70049;SDS011;57391;51.306;22.680;2024-03-02T00:51:57;42.60;;;18.80;;
70049;SDS011;57391;51.306;22.680;2024-03-02T00:54:01;46.50;;;20.30;;
70049;SDS011;57391;51.306;22.680;2024-03-02T00:56:09;43.00;;;19.20;;
70049;SDS011;57391;51.306;22.680;2024-03-02T00:58:13;51.70;;;21.50;;
70049;SDS011;57391;51.306;22.680;2024-03-02T01:00:15;47.00;;;21.60;;
70049;SDS011;57391;51.306;22.680;2024-03-02T01:02:19;46.40;;;19.90;;
70049;SDS011;57391;51.306;22.680;2024-03-02T01:04:22;44.40;;;20.00;;
70049;SDS011;57391;51.306;22.680;2024-03-02T01:06:24;44.50;;;18.10;;
70049;SDS011;57391;51.306;22.680;2024-03-02T01:08:26;44.30;;;18.80;;
70049;SDS011;57391;51.306;22.680;2024-03-02T01:10:29;41.50;;;18.10;;
70049;SDS011;57391;51.306;22.680;2024-03-02T01:12:31;50.30;;;20.20;;
70049;SDS011;57391;51.306;22.680;2024-03-02T01:14:33;44.10;;;18.90;;
70049;SDS011;57391;51.306;22.680;2024-03-02T01:16:36;47.00;;;20.00;;
70049;SDS011;57391;51.306;22.680;2024-03-02T01:18:38;50.70;;;22.30;;
70049;SDS011;57391;51.306;22.680;2024-03-02T01:20:40;44.90;;;18.10;;
70049;SDS011;57391;51.306;22.680;2024-03-02T01:22:43;50.60;;;20.60;;
70049;SDS011;57391;51.306;22.680;2024-03-02T01:24:45;45.30;;;18.40;;
70049;SDS011;57391;51.306;22.680;2024-03-02T01:26:47;46.00;;;19.10;;
70049;SDS011;57391;51.306;22.680;2024-03-02T01:28:50;47.10;;;20.10;;
70049;SDS011;57391;51.306;22.680;2024-03-02T01:30:52;47.10;;;18.80;;
70049;SDS011;57391;51.306;22.680;2024-03-02T01:32:54;57.00;;;22.00;;
70049;SDS011;57391;51.306;22.680;2024-03-02T01:34:56;55.40;;;22.80;;
70049;SDS011;57391;51.306;22.680;2024-03-02T01:36:59;49.50;;;20.40;;
70049;SDS011;57391;51.306;22.680;2024-03-02T01:39:01;54.40;;;20.50;;
70049;SDS011;57391;51.306;22.680;2024-03-02T01:41:03;51.40;;;21.40;;
70049;SDS011;57391;51.306;22.680;2024-03-02T01:43:06;60.50;;;24.50;;
70049;SDS011;57391;51.306;22.680;2024-03-02T01:45:09;50.00;;;20.80;;
70049;SDS011;57391;51.306;22.680;2024-03-02T01:47:11;55.00;;;22.40;;
70049;SDS011;57391;51.306;22.680;2024-03-02T01:49:13;50.10;;;20.50;;
70049;SDS011;57391;51.306;22.680;2024-03-02T01:51:15;58.20;;;24.40;;
70049;SDS011;57391;51.306;22.680;2024-03-02T01:53:17;54.90;;;23.00;;
70049;SDS011;57391;51.306;22.680;2024-03-02T01:55:20;54.10;;;23.50;;
70049;SDS011;57391;51.306;22.680;2024-03-02T01:57:22;52.10;;;20.00;;
70049;SDS011;57391;51.306;22.680;2024-03-02T01:59:24;52.10;;;22.90;;
70049;SDS011;57391;51.306;22.680;2024-03-02T02:01:27;46.60;;;21.00;;
70049;SDS011;57391;51.306;22.680;2024-03-02T02:03:29;47.90;;;19.90;;
70049;SDS011;57391;51.306;22.680;2024-03-02T02:05:31;52.50;;;22.20;;
70049;SDS011;57391;51.306;22.680;2024-03-02T02:07:34;47.00;;;20.20;;
70049;SDS011;57391;51.306;22.680;2024-03-02T02:09:37;40.40;;;18.00;;
70049;SDS011;57391;51.306;22.680;2024-03-02T02:11:39;52.00;;;22.00;;
70049;SDS011;57391;51.306;22.680;2024-03-02T02:13:42;58.40;;;24.00;;
70049;SDS011;57391;51.306;22.680;2024-03-02T02:15:44;47.00;;;19.80;;
70049;SDS011;57391;51.306;22.680;2024-03-02T02:17:47;45.50;;;19.80;;
70049;SDS011;57391;51.306;22.680;2024-03-02T02:19:49;50.40;;;20.30;;
70049;SDS011;57391;51.306;22.680;2024-03-02T02:21:51;49.30;;;20.70;;
70049;SDS011;57391;51.306;22.680;2024-03-02T02:23:54;56.00;;;23.80;;
70049;SDS011;57391;51.306;22.680;2024-03-02T02:25:56;46.60;;;21.20;;
70049;SDS011;57391;51.306;22.680;2024-03-02T02:27:58;53.80;;;22.40;;
70049;SDS011;57391;51.306;22.680;2024-03-02T02:30:00;51.10;;;22.80;;
70049;SDS011;57391;51.306;22.680;2024-03-02T02:32:05;47.40;;;20.50;;
70049;SDS011;57391;51.306;22.680;2024-03-02T02:34:07;57.50;;;24.40;;
70049;SDS011;57391;51.306;22.680;2024-03-02T02:36:10;44.90;;;21.20;;
70049;SDS011;57391;51.306;22.680;2024-03-02T02:38:12;43.80;;;19.00;;
70049;SDS011;57391;51.306;22.680;2024-03-02T02:40:15;42.20;;;19.50;;
70049;SDS011;57391;51.306;22.680;2024-03-02T02:42:24;43.30;;;19.70;;
70049;SDS011;57391;51.306;22.680;2024-03-02T02:44:26;42.90;;;20.00;;
70049;SDS011;57391;51.306;22.680;2024-03-02T02:46:28;46.40;;;21.10;;
70049;SDS011;57391;51.306;22.680;2024-03-02T02:48:31;46.30;;;21.70;;
70049;SDS011;57391;51.306;22.680;2024-03-02T02:50:33;41.40;;;18.60;;
70049;SDS011;57391;51.306;22.680;2024-03-02T02:52:38;46.50;;;20.50;;
70049;SDS011;57391;51.306;22.680;2024-03-02T02:54:41;55.80;;;23.90;;
70049;SDS011;57391;51.306;22.680;2024-03-02T02:56:44;46.60;;;21.50;;
70049;SDS011;57391;51.306;22.680;2024-03-02T02:58:46;46.70;;;21.60;;
70049;SDS011;57391;51.306;22.680;2024-03-02T03:00:49;49.80;;;23.60;;
70049;SDS011;57391;51.306;22.680;2024-03-02T03:02:51;47.00;;;21.30;;
70049;SDS011;57391;51.306;22.680;2024-03-02T03:04:53;47.70;;;20.80;;
70049;SDS011;57391;51.306;22.680;2024-03-02T03:06:55;38.30;;;17.40;;
70049;SDS011;57391;51.306;22.680;2024-03-02T03:08:57;51.40;;;23.00;;
70049;SDS011;57391;51.306;22.680;2024-03-02T03:11:00;46.20;;;19.00;;
70049;SDS011;57391;51.306;22.680;2024-03-02T03:13:02;52.20;;;22.60;;
70049;SDS011;57391;51.306;22.680;2024-03-02T03:15:05;45.40;;;19.90;;
70049;SDS011;57391;51.306;22.680;2024-03-02T03:17:08;47.70;;;20.60;;
70049;SDS011;57391;51.306;22.680;2024-03-02T03:19:10;47.90;;;20.80;;
70049;SDS011;57391;51.306;22.680;2024-03-02T03:21:12;51.00;;;22.50;;
70049;SDS011;57391;51.306;22.680;2024-03-02T03:23:14;39.30;;;17.30;;
70049;SDS011;57391;51.306;22.680;2024-03-02T03:25:17;49.40;;;21.00;;
70049;SDS011;57391;51.306;22.680;2024-03-02T03:27:19;46.40;;;19.70;;
70049;SDS011;57391;51.306;22.680;2024-03-02T03:29:21;51.30;;;22.30;;
70049;SDS011;57391;51.306;22.680;2024-03-02T03:31:23;56.70;;;23.60;;
70049;SDS011;57391;51.306;22.680;2024-03-02T03:33:25;52.70;;;22.20;;
70049;SDS011;57391;51.306;22.680;2024-03-02T03:35:27;55.70;;;23.80;;
70049;SDS011;57391;51.306;22.680;2024-03-02T03:37:30;57.50;;;24.40;;
70049;SDS011;57391;51.306;22.680;2024-03-02T03:39:34;48.60;;;21.00;;
70049;SDS011;57391;51.306;22.680;2024-03-02T03:41:42;56.50;;;24.20;;
70049;SDS011;57391;51.306;22.680;2024-03-02T03:43:44;49.20;;;20.00;;
70049;SDS011;57391;51.306;22.680;2024-03-02T03:45:46;50.80;;;22.60;;
70049;SDS011;57391;51.306;22.680;2024-03-02T03:47:48;59.70;;;23.60;;
70049;SDS011;57391;51.306;22.680;2024-03-02T03:49:51;49.70;;;22.40;;
70049;SDS011;57391;51.306;22.680;2024-03-02T03:51:53;60.10;;;23.90;;
70049;SDS011;57391;51.306;22.680;2024-03-02T03:53:55;61.40;;;23.90;;
70049;SDS011;57391;51.306;22.680;2024-03-02T03:55:58;48.30;;;19.40;;
70049;SDS011;57391;51.306;22.680;2024-03-02T03:58:00;54.00;;;22.10;;
70049;SDS011;57391;51.306;22.680;2024-03-02T04:00:03;50.80;;;20.50;;
70049;SDS011;57391;51.306;22.680;2024-03-02T04:02:05;56.10;;;21.50;;
70049;SDS011;57391;51.306;22.680;2024-03-02T04:04:08;55.60;;;22.50;;
70049;SDS011;57391;51.306;22.680;2024-03-02T04:06:10;63.20;;;25.50;;
70049;SDS011;57391;51.306;22.680;2024-03-02T04:08:12;56.30;;;22.10;;
70049;SDS011;57391;51.306;22.680;2024-03-02T04:10:14;56.50;;;22.20;;
70049;SDS011;57391;51.306;22.680;2024-03-02T04:12:18;59.80;;;23.40;;
70049;SDS011;57391;51.306;22.680;2024-03-02T04:14:20;56.50;;;23.40;;
70049;SDS011;57391;51.306;22.680;2024-03-02T04:16:23;57.20;;;23.30;;
70049;SDS011;57391;51.306;22.680;2024-03-02T04:18:24;56.80;;;23.30;;
70049;SDS011;57391;51.306;22.680;2024-03-02T04:20:29;58.90;;;23.40;;
70049;SDS011;57391;51.306;22.680;2024-03-02T04:22:33;55.20;;;21.90;;
70049;SDS011;57391;51.306;22.680;2024-03-02T04:24:36;55.00;;;22.00;;
70049;SDS011;57391;51.306;22.680;2024-03-02T04:26:38;53.40;;;20.10;;
70049;SDS011;57391;51.306;22.680;2024-03-02T04:28:40;53.40;;;20.00;;
70049;SDS011;57391;51.306;22.680;2024-03-02T04:30:42;53.30;;;21.00;;
70049;SDS011;57391;51.306;22.680;2024-03-02T04:32:44;59.90;;;25.00;;
70049;SDS011;57391;51.306;22.680;2024-03-02T04:34:50;54.60;;;21.80;;
70049;SDS011;57391;51.306;22.680;2024-03-02T04:36:52;61.50;;;23.60;;
70049;SDS011;57391;51.306;22.680;2024-03-02T04:38:54;61.00;;;25.50;;
70049;SDS011;57391;51.306;22.680;2024-03-02T04:40:56;52.50;;;21.40;;
70049;SDS011;57391;51.306;22.680;2024-03-02T04:42:58;52.70;;;21.30;;
70049;SDS011;57391;51.306;22.680;2024-03-02T04:45:01;57.20;;;22.10;;
70049;SDS011;57391;51.306;22.680;2024-03-02T04:47:04;51.90;;;20.50;;
70049;SDS011;57391;51.306;22.680;2024-03-02T04:49:06;52.00;;;21.10;;
70049;SDS011;57391;51.306;22.680;2024-03-02T04:51:08;53.30;;;23.60;;
70049;SDS011;57391;51.306;22.680;2024-03-02T04:53:10;42.90;;;18.70;;
70049;SDS011;57391;51.306;22.680;2024-03-02T04:55:12;50.70;;;20.20;;
70049;SDS011;57391;51.306;22.680;2024-03-02T04:57:17;55.40;;;22.30;;
70049;SDS011;57391;51.306;22.680;2024-03-02T04:59:19;51.60;;;20.60;;
70049;SDS011;57391;51.306;22.680;2024-03-02T05:01:21;43.30;;;20.40;;
70049;SDS011;57391;51.306;22.680;2024-03-02T05:03:24;49.10;;;19.90;;
70049;SDS011;57391;51.306;22.680;2024-03-02T05:05:26;49.70;;;21.30;;
70049;SDS011;57391;51.306;22.680;2024-03-02T05:07:28;52.40;;;20.50;;
70049;SDS011;57391;51.306;22.680;2024-03-02T05:09:30;45.70;;;19.40;;
70049;SDS011;57391;51.306;22.680;2024-03-02T05:11:33;52.80;;;21.00;;
70049;SDS011;57391;51.306;22.680;2024-03-02T05:13:38;51.50;;;21.40;;
70049;SDS011;57391;51.306;22.680;2024-03-02T05:15:40;49.70;;;20.00;;
70049;SDS011;57391;51.306;22.680;2024-03-02T05:17:42;44.70;;;19.40;;
70049;SDS011;57391;51.306;22.680;2024-03-02T05:19:44;41.70;;;19.20;;
70049;SDS011;57391;51.306;22.680;2024-03-02T05:21:46;44.80;;;19.20;;
70049;SDS011;57391;51.306;22.680;2024-03-02T05:23:48;47.70;;;20.20;;
70049;SDS011;57391;51.306;22.680;2024-03-02T05:25:50;49.70;;;21.10;;
70049;SDS011;57391;51.306;22.680;2024-03-02T05:27:53;52.60;;;22.60;;
70049;SDS011;57391;51.306;22.680;2024-03-02T05:29:55;45.50;;;19.00;;
70049;SDS011;57391;51.306;22.680;2024-03-02T05:31:57;48.50;;;20.70;;
70049;SDS011;57391;51.306;22.680;2024-03-02T05:33:59;54.10;;;22.90;;
70049;SDS011;57391;51.306;22.680;2024-03-02T05:36:01;54.10;;;21.20;;
70049;SDS011;57391;51.306;22.680;2024-03-02T05:38:04;47.10;;;19.30;;
70049;SDS011;57391;51.306;22.680;2024-03-02T05:40:07;56.70;;;23.80;;
70049;SDS011;57391;51.306;22.680;2024-03-02T05:42:10;45.70;;;19.20;;
70049;SDS011;57391;51.306;22.680;2024-03-02T05:44:13;51.80;;;21.40;;
70049;SDS011;57391;51.306;22.680;2024-03-02T05:46:17;46.70;;;19.30;;
70049;SDS011;57391;51.306;22.680;2024-03-02T05:48:19;46.60;;;19.70;;
70049;SDS011;57391;51.306;22.680;2024-03-02T05:50:21;41.70;;;18.60;;
70049;SDS011;57391;51.306;22.680;2024-03-02T05:52:24;44.60;;;18.80;;
70049;SDS011;57391;51.306;22.680;2024-03-02T05:54:26;43.90;;;18.50;;
70049;SDS011;57391;51.306;22.680;2024-03-02T05:56:28;50.20;;;22.80;;
70049;SDS011;57391;51.306;22.680;2024-03-02T05:58:31;42.40;;;18.40;;
70049;SDS011;57391;51.306;22.680;2024-03-02T06:00:52;51.00;;;22.40;;
70049;SDS011;57391;51.306;22.680;2024-03-02T06:02:53;46.60;;;18.30;;
70049;SDS011;57391;51.306;22.680;2024-03-02T06:04:56;48.50;;;22.40;;
70049;SDS011;57391;51.306;22.680;2024-03-02T06:06:58;42.50;;;17.60;;
70049;SDS011;57391;51.306;22.680;2024-03-02T06:09:01;46.40;;;21.20;;
70049;SDS011;57391;51.306;22.680;2024-03-02T06:11:09;31.20;;;15.80;;
70049;SDS011;57391;51.306;22.680;2024-03-02T06:13:12;42.60;;;18.70;;
70049;SDS011;57391;51.306;22.680;2024-03-02T06:15:15;42.20;;;20.50;;
70049;SDS011;57391;51.306;22.680;2024-03-02T06:17:17;42.80;;;19.30;;
70049;SDS011;57391;51.306;22.680;2024-03-02T06:19:20;44.90;;;20.40;;
70049;SDS011;57391;51.306;22.680;2024-03-02T06:21:22;41.00;;;20.00;;
70049;SDS011;57391;51.306;22.680;2024-03-02T06:23:24;42.60;;;19.70;;
70049;SDS011;57391;51.306;22.680;2024-03-02T06:25:26;42.30;;;19.40;;
70049;SDS011;57391;51.306;22.680;2024-03-02T06:27:28;44.20;;;19.00;;
70049;SDS011;57391;51.306;22.680;2024-03-02T06:29:34;38.70;;;17.30;;
70049;SDS011;57391;51.306;22.680;2024-03-02T06:31:36;44.70;;;20.00;;
70049;SDS011;57391;51.306;22.680;2024-03-02T06:33:37;40.60;;;18.20;;
70049;SDS011;57391;51.306;22.680;2024-03-02T06:35:40;40.00;;;18.40;;
70049;SDS011;57391;51.306;22.680;2024-03-02T06:37:42;36.50;;;16.70;;
70049;SDS011;57391;51.306;22.680;2024-03-02T06:39:44;47.50;;;19.00;;
70049;SDS011;57391;51.306;22.680;2024-03-02T06:41:47;44.80;;;20.70;;
70049;SDS011;57391;51.306;22.680;2024-03-02T06:43:49;40.40;;;17.90;;
70049;SDS011;57391;51.306;22.680;2024-03-02T06:45:51;34.80;;;16.10;;
70049;SDS011;57391;51.306;22.680;2024-03-02T06:47:54;36.60;;;16.70;;
70049;SDS011;57391;51.306;22.680;2024-03-02T06:49:56;39.70;;;18.50;;
70049;SDS011;57391;51.306;22.680;2024-03-02T06:51:59;38.60;;;18.50;;
70049;SDS011;57391;51.306;22.680;2024-03-02T06:54:01;32.10;;;15.40;;
70049;SDS011;57391;51.306;22.680;2024-03-02T06:56:04;34.30;;;17.70;;
70049;SDS011;57391;51.306;22.680;2024-03-02T06:58:07;37.20;;;17.90;;
70049;SDS011;57391;51.306;22.680;2024-03-02T07:00:10;36.80;;;17.30;;
70049;SDS011;57391;51.306;22.680;2024-03-02T07:02:12;34.20;;;15.80;;
70049;SDS011;57391;51.306;22.680;2024-03-02T07:04:14;36.30;;;17.50;;
70049;SDS011;57391;51.306;22.680;2024-03-02T07:06:19;31.10;;;15.30;;
70049;SDS011;57391;51.306;22.680;2024-03-02T07:08:21;36.40;;;16.00;;
70049;SDS011;57391;51.306;22.680;2024-03-02T07:10:28;33.40;;;14.90;;
70049;SDS011;57391;51.306;22.680;2024-03-02T07:12:31;28.10;;;15.00;;
70049;SDS011;57391;51.306;22.680;2024-03-02T07:14:33;30.30;;;14.00;;
70049;SDS011;57391;51.306;22.680;2024-03-02T07:16:53;26.70;;;13.90;;
70049;SDS011;57391;51.306;22.680;2024-03-02T07:18:56;32.50;;;15.00;;
70049;SDS011;57391;51.306;22.680;2024-03-02T07:20:59;32.50;;;16.70;;
70049;SDS011;57391;51.306;22.680;2024-03-02T07:23:02;26.90;;;13.90;;
70049;SDS011;57391;51.306;22.680;2024-03-02T07:25:05;29.90;;;16.70;;
70049;SDS011;57391;51.306;22.680;2024-03-02T07:27:09;24.50;;;12.70;;
70049;SDS011;57391;51.306;22.680;2024-03-02T07:29:11;29.30;;;14.90;;
70049;SDS011;57391;51.306;22.680;2024-03-02T07:31:13;33.70;;;15.40;;
70049;SDS011;57391;51.306;22.680;2024-03-02T07:33:17;33.70;;;16.60;;
70049;SDS011;57391;51.306;22.680;2024-03-02T07:35:19;31.30;;;14.50;;
70049;SDS011;57391;51.306;22.680;2024-03-02T07:37:23;31.60;;;15.80;;
70049;SDS011;57391;51.306;22.680;2024-03-02T07:39:26;27.90;;;14.80;;
70049;SDS011;57391;51.306;22.680;2024-03-02T07:41:29;31.70;;;15.40;;
70049;SDS011;57391;51.306;22.680;2024-03-02T07:43:33;27.70;;;13.60;;
70049;SDS011;57391;51.306;22.680;2024-03-02T07:45:35;30.40;;;15.10;;
70049;SDS011;57391;51.306;22.680;2024-03-02T07:47:38;28.10;;;14.40;;
70049;SDS011;57391;51.306;22.680;2024-03-02T07:49:40;34.90;;;15.90;;
70049;SDS011;57391;51.306;22.680;2024-03-02T07:51:42;28.80;;;13.60;;
70049;SDS011;57391;51.306;22.680;2024-03-02T07:53:44;26.70;;;14.10;;
70049;SDS011;57391;51.306;22.680;2024-03-02T07:55:47;33.30;;;15.20;;
70049;SDS011;57391;51.306;22.680;2024-03-02T07:57:49;29.40;;;13.70;;
70049;SDS011;57391;51.306;22.680;2024-03-02T07:59:52;30.50;;;14.80;;
70049;SDS011;57391;51.306;22.680;2024-03-02T08:01:54;28.70;;;15.00;;
70049;SDS011;57391;51.306;22.680;2024-03-02T08:03:57;31.90;;;16.20;;
70049;SDS011;57391;51.306;22.680;2024-03-02T08:06:05;33.70;;;15.30;;
70049;SDS011;57391;51.306;22.680;2024-03-02T08:08:07;31.10;;;16.00;;
70049;SDS011;57391;51.306;22.680;2024-03-02T08:10:09;32.20;;;15.60;;
70049;SDS011;57391;51.306;22.680;2024-03-02T08:12:11;28.00;;;14.90;;
70049;SDS011;57391;51.306;22.680;2024-03-02T08:14:13;31.60;;;16.40;;
70049;SDS011;57391;51.306;22.680;2024-03-02T08:16:16;29.40;;;15.90;;
70049;SDS011;57391;51.306;22.680;2024-03-02T08:18:21;24.50;;;12.40;;
70049;SDS011;57391;51.306;22.680;2024-03-02T08:20:26;35.80;;;17.10;;
70049;SDS011;57391;51.306;22.680;2024-03-02T08:22:28;31.90;;;15.40;;
70049;SDS011;57391;51.306;22.680;2024-03-02T08:24:30;30.50;;;15.80;;
70049;SDS011;57391;51.306;22.680;2024-03-02T08:26:39;29.10;;;15.50;;
70049;SDS011;57391;51.306;22.680;2024-03-02T08:28:50;31.70;;;14.20;;
70049;SDS011;57391;51.306;22.680;2024-03-02T08:30:55;34.90;;;15.10;;
70049;SDS011;57391;51.306;22.680;2024-03-02T08:33:14;30.10;;;14.60;;
70049;SDS011;57391;51.306;22.680;2024-03-02T08:35:33;30.10;;;15.10;;
70049;SDS011;57391;51.306;22.680;2024-03-02T08:37:41;31.30;;;15.70;;
70049;SDS011;57391;51.306;22.680;2024-03-02T08:39:47;27.20;;;13.30;;
70049;SDS011;57391;51.306;22.680;2024-03-02T08:45:12;24.50;;;13.30;;
70049;SDS011;57391;51.306;22.680;2024-03-02T08:47:15;28.20;;;14.80;;
70049;SDS011;57391;51.306;22.680;2024-03-02T08:49:17;30.80;;;15.90;;
70049;SDS011;57391;51.306;22.680;2024-03-02T08:51:19;30.90;;;13.70;;
70049;SDS011;57391;51.306;22.680;2024-03-02T08:53:21;28.00;;;14.90;;
70049;SDS011;57391;51.306;22.680;2024-03-02T08:55:23;28.30;;;15.70;;
70049;SDS011;57391;51.306;22.680;2024-03-02T08:57:26;37.10;;;17.50;;
70049;SDS011;57391;51.306;22.680;2024-03-02T08:59:28;31.90;;;15.60;;
70049;SDS011;57391;51.306;22.680;2024-03-02T09:01:30;30.10;;;14.70;;
70049;SDS011;57391;51.306;22.680;2024-03-02T09:03:33;31.40;;;15.50;;
70049;SDS011;57391;51.306;22.680;2024-03-02T09:05:36;30.40;;;15.50;;
70049;SDS011;57391;51.306;22.680;2024-03-02T09:07:37;27.40;;;14.30;;
70049;SDS011;57391;51.306;22.680;2024-03-02T09:09:42;29.90;;;14.50;;
70049;SDS011;57391;51.306;22.680;2024-03-02T09:11:46;31.30;;;15.50;;
70049;SDS011;57391;51.306;22.680;2024-03-02T09:13:48;32.30;;;16.30;;
70049;SDS011;57391;51.306;22.680;2024-03-02T09:15:51;28.50;;;14.90;;
70049;SDS011;57391;51.306;22.680;2024-03-02T09:17:53;34.20;;;16.30;;
70049;SDS011;57391;51.306;22.680;2024-03-02T09:19:55;32.50;;;15.50;;
70049;SDS011;57391;51.306;22.680;2024-03-02T09:21:57;30.10;;;14.90;;
70049;SDS011;57391;51.306;22.680;2024-03-02T09:24:00;30.20;;;15.60;;
70049;SDS011;57391;51.306;22.680;2024-03-02T09:26:04;31.60;;;15.90;;
70049;SDS011;57391;51.306;22.680;2024-03-02T09:28:06;37.60;;;19.80;;
70049;SDS011;57391;51.306;22.680;2024-03-02T09:30:09;37.80;;;18.40;;
70049;SDS011;57391;51.306;22.680;2024-03-02T09:32:13;33.00;;;18.50;;
70049;SDS011;57391;51.306;22.680;2024-03-02T09:34:15;32.10;;;16.00;;
70049;SDS011;57391;51.306;22.680;2024-03-02T09:36:22;32.40;;;17.60;;
70049;SDS011;57391;51.306;22.680;2024-03-02T09:38:25;31.30;;;16.10;;
70049;SDS011;57391;51.306;22.680;2024-03-02T09:40:27;35.60;;;17.10;;
70049;SDS011;57391;51.306;22.680;2024-03-02T09:42:30;33.80;;;16.30;;
70049;SDS011;57391;51.306;22.680;2024-03-02T09:44:33;32.70;;;17.00;;
70049;SDS011;57391;51.306;22.680;2024-03-02T09:46:35;34.90;;;17.50;;
70049;SDS011;57391;51.306;22.680;2024-03-02T09:48:38;33.40;;;16.40;;
70049;SDS011;57391;51.306;22.680;2024-03-02T09:50:41;28.30;;;14.60;;
70049;SDS011;57391;51.306;22.680;2024-03-02T09:52:44;31.50;;;16.90;;
70049;SDS011;57391;51.306;22.680;2024-03-02T09:54:50;32.50;;;17.10;;
70049;SDS011;57391;51.306;22.680;2024-03-02T09:56:52;32.40;;;15.80;;
70049;SDS011;57391;51.306;22.680;2024-03-02T09:58:54;32.50;;;16.50;;
70049;SDS011;57391;51.306;22.680;2024-03-02T10:00:56;29.40;;;14.70;;
70049;SDS011;57391;51.306;22.680;2024-03-02T10:03:09;28.50;;;15.10;;
70049;SDS011;57391;51.306;22.680;2024-03-02T10:05:26;29.60;;;16.10;;
70049;SDS011;57391;51.306;22.680;2024-03-02T10:07:29;27.90;;;13.70;;
70049;SDS011;57391;51.306;22.680;2024-03-02T10:09:31;30.50;;;15.00;;
70049;SDS011;57391;51.306;22.680;2024-03-02T10:11:35;31.60;;;16.90;;
70049;SDS011;57391;51.306;22.680;2024-03-02T10:13:39;30.30;;;15.80;;
70049;SDS011;57391;51.306;22.680;2024-03-02T10:15:41;30.00;;;15.80;;
70049;SDS011;57391;51.306;22.680;2024-03-02T10:17:44;29.00;;;13.80;;
70049;SDS011;57391;51.306;22.680;2024-03-02T10:21:56;25.90;;;14.60;;
70049;SDS011;57391;51.306;22.680;2024-03-02T10:24:07;30.40;;;16.70;;
70049;SDS011;57391;51.306;22.680;2024-03-02T10:26:17;24.50;;;13.20;;
70049;SDS011;57391;51.306;22.680;2024-03-02T10:28:22;30.40;;;15.30;;
70049;SDS011;57391;51.306;22.680;2024-03-02T10:30:24;29.60;;;15.50;;
70049;SDS011;57391;51.306;22.680;2024-03-02T10:32:26;27.10;;;15.20;;
70049;SDS011;57391;51.306;22.680;2024-03-02T10:34:28;26.90;;;14.60;;
70049;SDS011;57391;51.306;22.680;2024-03-02T10:36:30;27.30;;;14.40;;
70049;SDS011;57391;51.306;22.680;2024-03-02T10:38:33;33.10;;;17.60;;
70049;SDS011;57391;51.306;22.680;2024-03-02T10:40:35;28.90;;;14.70;;
70049;SDS011;57391;51.306;22.680;2024-03-02T10:42:37;29.80;;;16.10;;
70049;SDS011;57391;51.306;22.680;2024-03-02T10:44:41;29.10;;;16.00;;
70049;SDS011;57391;51.306;22.680;2024-03-02T10:46:46;31.80;;;15.40;;
70049;SDS011;57391;51.306;22.680;2024-03-02T10:48:50;33.70;;;18.50;;
70049;SDS011;57391;51.306;22.680;2024-03-02T10:50:53;28.90;;;15.80;;
70049;SDS011;57391;51.306;22.680;2024-03-02T10:52:56;28.50;;;15.80;;
70049;SDS011;57391;51.306;22.680;2024-03-02T10:54:58;30.50;;;15.60;;
70049;SDS011;57391;51.306;22.680;2024-03-02T10:57:01;25.90;;;14.60;;
70049;SDS011;57391;51.306;22.680;2024-03-02T11:01:29;30.30;;;14.80;;
70049;SDS011;57391;51.306;22.680;2024-03-02T11:03:35;28.30;;;14.80;;
70049;SDS011;57391;51.306;22.680;2024-03-02T11:05:44;34.00;;;16.90;;
70049;SDS011;57391;51.306;22.680;2024-03-02T11:07:47;30.70;;;15.90;;
70049;SDS011;57391;51.306;22.680;2024-03-02T11:09:54;29.80;;;14.60;;
70049;SDS011;57391;51.306;22.680;2024-03-02T11:12:03;29.20;;;15.10;;
70049;SDS011;57391;51.306;22.680;2024-03-02T11:14:17;27.60;;;15.50;;
70049;SDS011;57391;51.306;22.680;2024-03-02T11:16:32;30.10;;;15.90;;
70049;SDS011;57391;51.306;22.680;2024-03-02T11:18:37;28.70;;;15.10;;
70049;SDS011;57391;51.306;22.680;2024-03-02T11:20:40;27.30;;;15.60;;
70049;SDS011;57391;51.306;22.680;2024-03-02T11:22:43;28.30;;;15.00;;
70049;SDS011;57391;51.306;22.680;2024-03-02T11:24:50;25.30;;;13.60;;
70049;SDS011;57391;51.306;22.680;2024-03-02T11:26:53;31.50;;;19.10;;
70049;SDS011;57391;51.306;22.680;2024-03-02T11:28:56;31.00;;;14.70;;
70049;SDS011;57391;51.306;22.680;2024-03-02T11:31:00;28.40;;;14.80;;
70049;SDS011;57391;51.306;22.680;2024-03-02T11:33:06;25.50;;;15.10;;
70049;SDS011;57391;51.306;22.680;2024-03-02T11:35:09;30.00;;;17.30;;
70049;SDS011;57391;51.306;22.680;2024-03-02T11:37:11;29.20;;;15.30;;
70049;SDS011;57391;51.306;22.680;2024-03-02T11:39:14;27.20;;;14.50;;
70049;SDS011;57391;51.306;22.680;2024-03-02T11:41:19;26.80;;;14.50;;
70049;SDS011;57391;51.306;22.680;2024-03-02T11:43:21;25.70;;;14.60;;
70049;SDS011;57391;51.306;22.680;2024-03-02T11:45:27;28.70;;;15.70;;
70049;SDS011;57391;51.306;22.680;2024-03-02T11:47:34;28.40;;;14.40;;
70049;SDS011;57391;51.306;22.680;2024-03-02T11:49:44;27.80;;;13.60;;
70049;SDS011;57391;51.306;22.680;2024-03-02T11:52:00;25.10;;;13.10;;
70049;SDS011;57391;51.306;22.680;2024-03-02T11:54:04;24.40;;;14.20;;
70049;SDS011;57391;51.306;22.680;2024-03-02T11:56:09;28.30;;;14.80;;
70049;SDS011;57391;51.306;22.680;2024-03-02T11:58:15;24.10;;;14.50;;
70049;SDS011;57391;51.306;22.680;2024-03-02T12:00:28;26.00;;;13.90;;
70049;SDS011;57391;51.306;22.680;2024-03-02T12:02:31;24.90;;;13.70;;